Terminal Aerodrome Forecast
Issued by NWS

Home | Current Version | Previous Version | Text Only | Print | Product List | Glossary On
Versions: 1 2 3 4 5 6 7 8 9 10 11 12 13 14 15 16 17 18 19 20 21
000
FTUS45 KBOU 222200 AAB
TAFBJC
TAF AMD
KBJC 222200Z 2222/2318 35010KT P6SM SCT100 BKN150
     FM230300 30012KT P6SM FEW100 SCT200
     FM231100 16008KT P6SM FEW200
     FM231600 06010KT P6SM FEW120 SCT220=

USA.gov is the U.S. government's official web portal to all federal, state and local government web resources and services.